Salt Lake City, UT

12:42 PM MST on December 07, 2016 (GMT -0700)
APRSWXNET | | Change Station

Elev 4839 ft 40.68 °N, 111.81 °W | Updated 42 minutes ago

Mostly Cloudy
Mostly Cloudy
23.0 °F
Feels Like 23.0 °F
N
1.0
Wind Variable Wind from East
Gusts 5.0 mph

Today
High -- | Low -- °F
--% Chance of Precip.
Yesterday
High -- | Low -- °F
Precip. -- in
Pressure 30.35 in
Visibility 10.0 miles
Clouds Few 2000 ft
Mostly Cloudy 3500 ft
Mostly Cloudy 5000 ft
Mostly Cloudy 18000 ft
Dew Point 16.0 °F
Humidity 75%
Rainfall in
Snow Depth Not available.
7:38 AM 4:59 PM
First Quarter, 55% visible
METAR KSLC 071854Z COR 00000KT 10SM FEW020 BKN035 BKN050 BKN180 M03/M11 A3028 RMK AO2 SLP277 CB DSNT SW TCU DSNT N SH DSNT NE-SE AND SW-W T10281106
Pressure 30.35 in
Visibility 10.0 miles
Clouds Few 2000 ft
Mostly Cloudy 3500 ft
Mostly Cloudy 5000 ft
Mostly Cloudy 18000 ft
Dew Point 16.0 °F
Humidity 75%
Rainfall in
Snow Depth Not available.
7:38 AM 4:59 PM
First Quarter, 55% visible
METAR KSLC 071854Z COR 00000KT 10SM FEW020 BKN035 BKN050 BKN180 M03/M11 A3028 RMK AO2 SLP277 CB DSNT SW TCU DSNT N SH DSNT NE-SE AND SW-W T10281106

10-Day Weather Forecast

Almanac

Astronomy

Dec. 07, 2016 Rise Set
Actual Time
Civil Twilight
Nautical Twilight
Astronomical Twilight
Moon
Length of Visible Light
Length of Day
Tomorrow will be .
, % of the Moon is Illuminated

Today's Extremes

State Highs State Lows

Community

WunderPhotos

Upload Photos

1,956,164 photos uploaded!

WunderBlog® & News

Nearby

Air Quality

  Air Quality AQ Index Pollutant
Not available.

Snow Depth

Station Depth Elevation

Earthquake Activity

City Distance Mag. Time & Date
Minimum magnitude displayed is 2.5.

Coastal Water Temperatures

Place Temperature

Stations

Nearby Weather Stations

Station Location Temp. Windchill Dew Point Humidity Wind Precip. Elev Updated Type
                   

Watches & Warnings

There are currently no watches in effect.